AirNav   Pilot Hours Calculator
 
 727 users online  

4NE8 Malone M-Bar Ranch Airport
Palisade, Nebraska, USA

GOING TO PALISADE?


FAA INFORMATION EFFECTIVE 02 JANUARY 2020

Location

FAA Identifier: 4NE8
Lat/Long: 40-22-57.9950N 101-09-05.5790W
40-22.966583N 101-09.092983W
40.3827764,-101.1515497
(estimated)
Elevation: 3000 ft. / 914 m (estimated)
Variation: 09E (1985)
From city: 3 miles NW of PALISADE, NE
Time zone: UTC -6 (UTC -5 during Daylight Saving Time)
Zip code: 69040

Airport Operations

Airport use: Private use. Permission required prior to landing
Control tower: no
ARTCC: DENVER CENTER
FSS: COLUMBUS FLIGHT SERVICE STATION
Attendance: UNATNDD
Wind indicator: yes
Segmented circle: no

Airport Communications

UNICOM: 122.8

Nearby radio navigation aids

VOR radial/distance  VOR name  Freq  Var
HCTr237/11.3HAYES CENTER VORTAC117.7011E
MCKr285/27.7MC COOK VOR/DME115.3008E

 
NDB name  Hdg/Dist  Freq  Var  ID
GRANT129/39.435909EGGF --. --. ..-.

Airport Services

Runway Information

Runway 17/35

Dimensions: 3000 x 100 ft. / 914 x 30 m
Surface: turf
RUNWAY 17  RUNWAY 35
Traffic pattern: leftleft
Obstructions: nonepline
PLINES S & E SIDE, CANYON ON BOTH ENDS.

Runway 13/31

Dimensions: 2640 x 150 ft. / 805 x 46 m
Surface: turf
RUNWAY 13  RUNWAY 31
Traffic pattern: leftleft

Airport Ownership and Management from official FAA records

Ownership: Privately-owned
Owner: GARY D MALONE
M-BAR RANCH 72947 AVE 356
PALISADE, NE 69040
Phone 308-285-3440
Manager: GARY MALONE
M-BAR RANCH 72947 AVE 356
PALISADE, NE 69040
Phone 308-285-3440
JUDY MALONE

Airport Operational Statistics

Aircraft based on the field: 1
Single engine airplanes: 1
    

Additional Remarks

FOR CD CTC DENVER ARTCC AT 303-651-4257.

Instrument Procedures

There are no published instrument procedures at 4NE8.

Some nearby airports with instrument procedures:

KIML - Imperial Municipal Airport (23 nm W)
KMCK - Mc Cook Ben Nelson Regional Airport (28 nm E)
KADT - Atwood-Rawlins County City-County Airport (33 nm S)
47V - Curtis Municipal Airport (35 nm NE)
KGGF - Grant Municipal Airport (39 nm NW)
 
Loc | Ops | Rwys | IFR | FBO | Links
Com | Nav | Svcs | Stats | Notes

AirBoss

 
Area around 4NE8 (Malone M-Bar Ranch Airport)
 
Road maps at: MapQuest Bing Google
 
Aerial photo
No photo
 
Sectional chart

 
Airport distance calculator
Flying to Malone M-Bar Ranch Airport? Find the distance to fly.

From to 4NE8

Sunrise and sunset
Times for 20-Jan-2020
 Local
(UTC-6)
 Zulu
(UTC)
Morning civil twilight07:3513:35
Sunrise08:0414:04
Sunset17:4723:47
Evening civil twilight18:1700:17

Current date and time
Zulu (UTC)  20-Jan-2020 12:38:52
Local (UTC-6)  20-Jan-2020 06:38:52
 
METAR
KIML 
23nm W 
201153Z AUTO 30008KT 10SM CLR M06/M11 A3039 RMK AO2 SLP324 T10611111 11044 21078 55004
KMCK 
28nm SE 
201153Z AUTO 35004KT 10SM CLR M10/M12 A3043 RMK AO2 SLP341 T11001117 11033 21100 53006
KOIN 
43nm SE 
201215Z AUTO 00000KT 10SM CLR M09/M10 A3046 RMK AO1 T10861100
TAF
KMCK 
28nm SE 
201124Z 2012/2112 VRB05KT P6SM SKC FM201600 06008KT P6SM SCT005 FM210000 10007KT P6SM FEW300 FM210600 14006KT P6SM SCT250
NOTAMs
Click for the latest NOTAMs
NOTAMs are issued by the DoD/FAA and will open in a separate window not controlled by AirNav.

 

 
 

Would you like to see your business listed on this page?

 If your business provides an interesting product or service to pilots, flight crews, aircraft, or users of the Malone M-Bar Ranch Airport, you should consider listing it here.  To start the listing process, click on the button below
 
Add a business
 

Other Pages about Malone M-Bar Ranch Airport

Update a link
 
Copyright © AirNav, LLC. All rights reserved. Privacy Policy  Contact